createdAt,value
2023-04-08T00:04:43.059Z,17.45
2023-04-08T00:09:44.976Z,17.83
2023-04-08T00:14:46.848Z,20.33
2023-04-08T00:19:48.442Z,20.88
2023-04-08T00:24:50.113Z,18.90
2023-04-08T00:29:51.833Z,19.75
2023-04-08T00:34:54.074Z,18.73
2023-04-08T00:39:55.706Z,18.58
2023-04-08T00:44:57.658Z,17.75
2023-04-08T00:49:59.578Z,19.20
2023-04-08T00:55:01.273Z,19.40
2023-04-08T01:00:05.928Z,17.13
2023-04-08T01:05:15.745Z,18.98
2023-04-08T01:10:24.827Z,16.85
2023-04-08T01:15:29.032Z,18.15
2023-04-08T01:20:31.079Z,19.33
2023-04-08T01:25:35.192Z,20.00
2023-04-08T01:30:39.771Z,18.90
2023-04-08T01:35:41.814Z,19.08
2023-04-08T01:40:44.684Z,19.95
2023-04-08T01:45:49.239Z,18.40
2023-04-08T01:50:52.043Z,20.13
2023-04-08T01:55:58.631Z,19.95
2023-04-08T02:01:01.042Z,19.30
2023-04-08T02:06:02.677Z,19.95
2023-04-08T02:11:04.504Z,19.13
2023-04-08T02:16:18.572Z,20.65
2023-04-08T02:21:27.068Z,18.73
2023-04-08T02:26:28.781Z,19.48
2023-04-08T02:31:33.198Z,19.10
2023-04-08T02:36:35.235Z,20.75
2023-04-08T02:41:38.453Z,21.42
2023-04-08T02:46:40.333Z,18.63
2023-04-08T02:51:42.009Z,17.88
2023-04-08T02:56:43.977Z,17.00
2023-04-08T03:01:45.830Z,16.30
2023-04-08T03:06:47.467Z,18.15
2023-04-08T03:11:53.175Z,14.35
2023-04-08T03:16:54.916Z,13.48
2023-04-08T03:21:56.601Z,13.70
2023-04-08T03:26:58.285Z,12.95
2023-04-08T03:32:00.026Z,13.57
2023-04-08T03:37:02.064Z,11.85
2023-04-08T03:42:03.882Z,10.55
2023-04-08T03:47:05.606Z,11.15
2023-04-08T03:52:07.332Z,11.30
2023-04-08T03:57:08.965Z,11.32
2023-04-08T04:02:10.794Z,12.13
2023-04-08T04:07:12.442Z,11.65
2023-04-08T04:12:16.532Z,10.80
2023-04-08T04:17:18.455Z,11.65
2023-04-08T04:22:20.094Z,10.35
2023-04-08T04:27:21.687Z,11.02
2023-04-08T04:32:23.381Z,12.13
2023-04-08T04:37:26.476Z,11.57
2023-04-08T04:42:28.196Z,10.60
2023-04-08T04:47:32.568Z,11.60
2023-04-08T04:52:36.269Z,11.45
2023-04-08T04:57:37.934Z,12.00
2023-04-08T05:02:39.598Z,11.43
2023-04-08T05:07:41.289Z,12.23
2023-04-08T05:12:42.883Z,12.27
2023-04-08T05:17:44.598Z,12.65
2023-04-08T05:22:46.275Z,12.65
2023-04-08T05:27:47.987Z,12.85
2023-04-08T05:32:49.710Z,12.20
2023-04-08T05:37:51.424Z,11.38
2023-04-08T05:42:53.061Z,13.25
2023-04-08T05:47:54.802Z,12.02
2023-04-08T05:52:56.537Z,12.60
2023-04-08T05:57:58.119Z,12.25
2023-04-08T06:03:00.237Z,12.13
2023-04-08T06:08:02.328Z,12.20
2023-04-08T06:13:04.054Z,12.55
2023-04-08T06:18:05.887Z,12.57
2023-04-08T06:23:08.162Z,13.18
2023-04-08T06:28:09.868Z,13.50
2023-04-08T06:33:11.620Z,13.05
2023-04-08T06:38:13.526Z,13.35
2023-04-08T06:43:15.391Z,13.60
2023-04-08T06:48:17.045Z,13.00
2023-04-08T06:53:18.713Z,14.43
2023-04-08T06:58:20.355Z,13.10
2023-04-08T07:03:22.783Z,14.05
2023-04-08T07:08:24.477Z,13.45
2023-04-08T07:13:26.234Z,14.32
2023-04-08T07:18:29.048Z,13.30
2023-04-08T07:23:30.688Z,14.35
2023-04-08T07:28:32.407Z,13.95
2023-04-08T07:33:34.120Z,13.23
2023-04-08T07:38:35.729Z,13.40
2023-04-08T07:43:37.635Z,12.55
2023-04-08T07:48:39.371Z,11.77
2023-04-08T07:53:40.974Z,11.50
2023-04-08T07:58:42.707Z,11.13
2023-04-08T08:03:45.017Z,10.57
2023-04-08T08:08:46.998Z,11.95
2023-04-08T08:13:48.854Z,11.23
2023-04-08T08:18:50.659Z,10.38
2023-04-08T08:23:53.041Z,11.45
2023-04-08T08:28:55.002Z,9.80
2023-04-08T08:33:56.684Z,9.85
2023-04-08T08:38:58.413Z,9.88
2023-04-08T08:44:00.360Z,9.45
2023-04-08T08:49:02.370Z,9.70
2023-04-08T08:54:04.521Z,8.70
2023-04-08T08:59:06.341Z,10.70
2023-04-08T09:04:10.724Z,10.63
2023-04-08T09:09:13.275Z,11.45
2023-04-08T09:14:25.581Z,10.52
2023-04-08T09:19:27.298Z,9.52
2023-04-08T09:24:30.867Z,8.73
2023-04-08T09:29:35.728Z,10.68
2023-04-08T09:34:40.069Z,14.55
2023-04-08T09:39:41.775Z,11.90
2023-04-08T09:44:45.996Z,11.10
2023-04-08T09:49:55.258Z,12.65
2023-04-08T09:55:06.713Z,12.03
2023-04-08T10:00:13.465Z,10.52
2023-04-08T10:05:18.572Z,10.80
2023-04-08T10:10:21.163Z,11.48
2023-04-08T10:15:33.460Z,11.98
2023-04-08T10:20:35.960Z,12.77
2023-04-08T10:25:39.326Z,12.07
2023-04-08T10:30:47.696Z,11.93
2023-04-08T10:35:54.170Z,13.00
2023-04-08T10:40:55.886Z,13.27
2023-04-08T10:45:57.508Z,12.32
2023-04-08T10:51:03.914Z,12.48
2023-04-08T10:56:15.697Z,12.85
2023-04-08T11:01:28.474Z,12.18
2023-04-08T11:06:36.878Z,11.35
2023-04-08T11:11:38.806Z,11.40
2023-04-08T11:16:40.871Z,11.93
2023-04-08T11:21:42.727Z,10.98
2023-04-08T11:26:44.543Z,10.60
2023-04-08T11:31:47.516Z,11.60
2023-04-08T11:36:50.143Z,11.35
2023-04-08T11:41:51.814Z,8.63
2023-04-08T11:46:55.631Z,10.43
2023-04-08T11:51:59.569Z,8.80
2023-04-08T11:57:03.040Z,10.73
2023-04-08T12:02:04.798Z,10.98
2023-04-08T12:07:06.566Z,11.60
2023-04-08T12:12:08.226Z,11.57
2023-04-08T12:17:09.844Z,10.77
2023-04-08T12:22:11.781Z,9.75
2023-04-08T12:27:13.425Z,11.02
2023-04-08T12:32:15.165Z,10.13
2023-04-08T12:37:16.920Z,10.40
2023-04-08T12:42:18.806Z,10.55
2023-04-08T12:47:20.471Z,9.93
2023-04-08T12:52:22.193Z,10.73
2023-04-08T12:57:23.793Z,11.15
2023-04-08T13:02:27.295Z,11.70
2023-04-08T13:07:29.139Z,11.10
2023-04-08T13:12:32.086Z,14.38
2023-04-08T13:17:37.306Z,11.63
2023-04-08T13:22:38.975Z,13.43
2023-04-08T13:27:41.256Z,12.30
2023-04-08T13:32:43.005Z,12.63
2023-04-08T13:37:44.761Z,12.75
2023-04-08T13:42:46.707Z,11.77
2023-04-08T13:47:48.343Z,12.98
2023-04-08T13:52:49.997Z,13.32
2023-04-08T13:57:51.581Z,11.82
2023-04-08T14:02:53.346Z,12.43
2023-04-08T14:07:55.353Z,13.13
2023-04-08T14:12:57.059Z,15.27
2023-04-08T14:17:58.727Z,13.95
2023-04-08T14:23:00.410Z,13.52
2023-04-08T14:28:02.016Z,12.15
2023-04-08T14:33:05.361Z,14.07
2023-04-08T14:38:07.190Z,12.95
2023-04-08T14:43:08.929Z,11.85
2023-04-08T14:48:11.300Z,11.52
2023-04-08T14:53:12.949Z,11.20
2023-04-08T14:58:14.600Z,11.00
2023-04-08T15:03:18.051Z,9.52
2023-04-08T15:08:30.766Z,10.70
2023-04-08T15:13:32.498Z,11.52
2023-04-08T15:18:34.158Z,11.32
2023-04-08T15:23:35.903Z,13.15
2023-04-08T15:28:38.228Z,12.95
2023-04-08T15:33:41.485Z,14.02
2023-04-08T15:38:43.253Z,9.73
2023-04-08T15:43:46.200Z,11.60
2023-04-08T15:48:48.521Z,14.00
2023-04-08T15:53:51.695Z,13.57
2023-04-08T15:58:53.583Z,13.30
2023-04-08T16:03:55.633Z,16.50
2023-04-08T16:08:57.818Z,10.65
2023-04-08T16:13:59.480Z,14.88
2023-04-08T16:19:02.262Z,13.35
2023-04-08T16:24:05.689Z,16.13
2023-04-08T16:29:07.552Z,15.32
2023-04-08T16:34:09.197Z,15.63
2023-04-08T16:39:11.092Z,15.93
2023-04-08T16:44:12.868Z,14.10
2023-04-08T16:49:16.219Z,17.35
2023-04-08T16:54:19.337Z,14.02
2023-04-08T16:59:21.210Z,13.50
2023-04-08T17:04:22.928Z,17.67
2023-04-08T17:09:24.817Z,10.90
2023-04-08T17:14:27.752Z,10.15
2023-04-08T17:19:29.434Z,11.93
2023-04-08T17:24:31.091Z,10.93
2023-04-08T17:29:32.820Z,12.88
2023-04-08T17:34:43.701Z,11.32
2023-04-08T17:39:46.482Z,12.88
2023-04-08T17:44:48.547Z,12.23
2023-04-08T17:49:50.286Z,20.92
2023-04-08T17:54:51.875Z,14.35
2023-04-08T17:59:53.478Z,13.95
2023-04-08T18:04:59.521Z,12.80
2023-04-08T18:10:01.261Z,13.05
2023-04-08T18:15:03.279Z,11.48
2023-04-08T18:20:05.522Z,11.63
2023-04-08T18:25:07.494Z,11.95
2023-04-08T18:30:09.513Z,17.48
2023-04-08T18:35:11.265Z,12.23
2023-04-08T18:40:13.175Z,11.82
2023-04-08T18:45:14.816Z,12.18
2023-04-08T18:50:16.575Z,13.35
2023-04-08T18:55:18.570Z,13.65
2023-04-08T19:00:20.365Z,13.50
2023-04-08T19:05:22.103Z,14.38
2023-04-08T19:10:24.763Z,14.30
2023-04-08T19:15:26.880Z,14.70
2023-04-08T19:20:28.612Z,13.57
2023-04-08T19:25:30.683Z,13.98
2023-04-08T19:30:38.927Z,13.30
2023-04-08T19:35:41.019Z,14.68
2023-04-08T19:40:42.707Z,15.13
2023-04-08T19:45:44.780Z,14.25
2023-04-08T19:50:46.354Z,13.95
2023-04-08T19:55:48.017Z,15.23
2023-04-08T20:00:49.583Z,14.68
2023-04-08T20:05:51.166Z,16.38
2023-04-08T20:10:53.973Z,16.50
2023-04-08T20:15:55.565Z,15.88
2023-04-08T20:20:57.291Z,17.13
2023-04-08T20:25:59.556Z,15.32
2023-04-08T20:31:01.834Z,16.23
2023-04-08T20:36:04.800Z,17.52
2023-04-08T20:41:07.168Z,17.15
2023-04-08T20:46:09.239Z,16.70
2023-04-08T20:51:10.864Z,18.58
2023-04-08T20:56:12.509Z,16.55
2023-04-08T21:01:15.064Z,17.48
2023-04-08T21:11:22.545Z,17.02
2023-04-08T21:16:25.251Z,16.10
2023-04-08T21:21:28.410Z,18.48
2023-04-08T21:26:30.021Z,17.48
2023-04-08T21:31:31.861Z,18.63
2023-04-08T21:36:33.827Z,16.55
2023-04-08T21:41:35.454Z,16.60
2023-04-08T21:46:37.100Z,18.30
2023-04-08T21:51:39.435Z,18.08
2023-04-08T21:56:41.065Z,18.48
2023-04-08T22:01:42.705Z,17.98
2023-04-08T22:06:44.680Z,17.90
2023-04-08T22:11:46.519Z,18.88
2023-04-08T22:16:48.176Z,18.13
2023-04-08T22:21:52.735Z,19.77
2023-04-08T22:26:54.562Z,18.83
2023-04-08T22:31:56.242Z,18.42
2023-04-08T22:36:58.496Z,17.30
2023-04-08T22:42:01.073Z,17.15
2023-04-08T22:47:02.770Z,18.88
2023-04-08T22:52:04.498Z,19.35
2023-04-08T22:57:06.506Z,20.90
2023-04-08T23:02:08.260Z,20.80
2023-04-08T23:07:10.022Z,19.38
2023-04-08T23:12:11.733Z,19.60
2023-04-08T23:17:13.331Z,20.45
2023-04-08T23:22:14.977Z,20.95
2023-04-08T23:27:16.613Z,21.00
2023-04-08T23:32:18.392Z,20.55
2023-04-08T23:37:20.913Z,20.73
2023-04-08T23:42:27.087Z,22.63
2023-04-08T23:47:30.889Z,20.65
2023-04-08T23:52:32.684Z,21.25
2023-04-08T23:57:34.263Z,22.75
